sensor_id;sensor_type;location;lat;lon;timestamp;P1;durP1;ratioP1;P2;durP2;ratioP2
24102;SDS011;12278;53.058;9.028;2022-09-01T00:01:35;1.55;;;0.95;;
24102;SDS011;12278;53.058;9.028;2022-09-01T00:05:41;0.55;;;0.55;;
24102;SDS011;12278;53.058;9.028;2022-09-01T00:09:42;1.40;;;0.77;;
24102;SDS011;12278;53.058;9.028;2022-09-01T00:13:43;0.85;;;0.80;;
24102;SDS011;12278;53.058;9.028;2022-09-01T00:17:44;0.82;;;0.82;;
24102;SDS011;12278;53.058;9.028;2022-09-01T00:21:45;1.33;;;0.95;;
24102;SDS011;12278;53.058;9.028;2022-09-01T00:25:46;0.95;;;0.93;;
24102;SDS011;12278;53.058;9.028;2022-09-01T00:29:47;2.58;;;1.02;;
24102;SDS011;12278;53.058;9.028;2022-09-01T00:33:48;0.80;;;0.75;;
24102;SDS011;12278;53.058;9.028;2022-09-01T00:37:50;1.95;;;1.02;;
24102;SDS011;12278;53.058;9.028;2022-09-01T00:41:51;1.85;;;0.75;;
24102;SDS011;12278;53.058;9.028;2022-09-01T00:45:52;0.57;;;0.57;;
24102;SDS011;12278;53.058;9.028;2022-09-01T00:49:53;1.27;;;0.80;;
24102;SDS011;12278;53.058;9.028;2022-09-01T00:53:55;1.15;;;1.02;;
24102;SDS011;12278;53.058;9.028;2022-09-01T00:58:00;2.13;;;1.08;;
24102;SDS011;12278;53.058;9.028;2022-09-01T01:02:03;1.85;;;1.23;;
24102;SDS011;12278;53.058;9.028;2022-09-01T01:06:05;2.17;;;0.82;;
24102;SDS011;12278;53.058;9.028;2022-09-01T01:10:10;0.80;;;0.80;;
24102;SDS011;12278;53.058;9.028;2022-09-01T01:14:15;1.02;;;0.85;;
24102;SDS011;12278;53.058;9.028;2022-09-01T01:18:16;0.73;;;0.73;;
24102;SDS011;12278;53.058;9.028;2022-09-01T01:27:01;0.98;;;0.95;;
24102;SDS011;12278;53.058;9.028;2022-09-01T01:31:04;1.15;;;1.02;;
24102;SDS011;12278;53.058;9.028;2022-09-01T01:35:13;0.93;;;0.90;;
24102;SDS011;12278;53.058;9.028;2022-09-01T01:39:17;1.02;;;0.82;;
24102;SDS011;12278;53.058;9.028;2022-09-01T01:43:30;1.83;;;1.17;;
24102;SDS011;12278;53.058;9.028;2022-09-01T01:47:31;0.90;;;0.90;;
24102;SDS011;12278;53.058;9.028;2022-09-01T01:51:31;1.20;;;1.10;;
24102;SDS011;12278;53.058;9.028;2022-09-01T01:55:33;1.42;;;0.85;;
24102;SDS011;12278;53.058;9.028;2022-09-01T01:59:34;1.00;;;0.98;;
24102;SDS011;12278;53.058;9.028;2022-09-01T02:03:35;1.25;;;1.15;;
24102;SDS011;12278;53.058;9.028;2022-09-01T02:07:37;2.50;;;1.00;;
24102;SDS011;12278;53.058;9.028;2022-09-01T02:11:39;1.88;;;0.80;;
24102;SDS011;12278;53.058;9.028;2022-09-01T02:15:41;1.30;;;1.10;;
24102;SDS011;12278;53.058;9.028;2022-09-01T02:19:49;1.40;;;1.20;;
24102;SDS011;12278;53.058;9.028;2022-09-01T02:23:51;1.30;;;1.20;;
24102;SDS011;12278;53.058;9.028;2022-09-01T02:28:02;0.80;;;0.80;;
24102;SDS011;12278;53.058;9.028;2022-09-01T02:32:08;1.88;;;1.20;;
24102;SDS011;12278;53.058;9.028;2022-09-01T02:36:11;1.25;;;1.15;;
24102;SDS011;12278;53.058;9.028;2022-09-01T02:40:16;1.27;;;1.08;;
24102;SDS011;12278;53.058;9.028;2022-09-01T02:44:17;1.50;;;1.40;;
24102;SDS011;12278;53.058;9.028;2022-09-01T02:48:21;3.28;;;1.23;;
24102;SDS011;12278;53.058;9.028;2022-09-01T02:52:36;2.78;;;1.15;;
24102;SDS011;12278;53.058;9.028;2022-09-01T02:56:37;2.90;;;1.08;;
24102;SDS011;12278;53.058;9.028;2022-09-01T03:00:37;14.80;;;2.25;;
24102;SDS011;12278;53.058;9.028;2022-09-01T03:04:38;1.70;;;1.60;;
24102;SDS011;12278;53.058;9.028;2022-09-01T03:08:39;1.40;;;1.30;;
24102;SDS011;12278;53.058;9.028;2022-09-01T03:12:41;1.73;;;1.58;;
24102;SDS011;12278;53.058;9.028;2022-09-01T03:16:42;1.20;;;1.10;;
24102;SDS011;12278;53.058;9.028;2022-09-01T03:20:44;2.03;;;1.15;;
24102;SDS011;12278;53.058;9.028;2022-09-01T03:24:46;2.03;;;1.27;;
24102;SDS011;12278;53.058;9.028;2022-09-01T03:28:48;2.45;;;1.30;;
24102;SDS011;12278;53.058;9.028;2022-09-01T03:32:51;1.20;;;1.10;;
24102;SDS011;12278;53.058;9.028;2022-09-01T03:36:52;2.20;;;1.35;;
24102;SDS011;12278;53.058;9.028;2022-09-01T03:40:55;7.97;;;2.15;;
24102;SDS011;12278;53.058;9.028;2022-09-01T03:45:02;2.05;;;1.50;;
24102;SDS011;12278;53.058;9.028;2022-09-01T03:49:08;1.45;;;1.35;;
24102;SDS011;12278;53.058;9.028;2022-09-01T03:53:19;2.10;;;1.35;;
24102;SDS011;12278;53.058;9.028;2022-09-01T03:57:21;1.35;;;1.25;;
24102;SDS011;12278;53.058;9.028;2022-09-01T04:01:23;1.83;;;1.50;;
24102;SDS011;12278;53.058;9.028;2022-09-01T04:05:28;1.73;;;1.35;;
24102;SDS011;12278;53.058;9.028;2022-09-01T04:09:32;1.50;;;1.40;;
24102;SDS011;12278;53.058;9.028;2022-09-01T04:13:35;1.50;;;1.40;;
24102;SDS011;12278;53.058;9.028;2022-09-01T04:17:40;3.17;;;1.67;;
24102;SDS011;12278;53.058;9.028;2022-09-01T04:22:01;1.75;;;1.48;;
24102;SDS011;12278;53.058;9.028;2022-09-01T04:26:09;2.20;;;1.50;;
24102;SDS011;12278;53.058;9.028;2022-09-01T04:30:19;2.10;;;1.67;;
24102;SDS011;12278;53.058;9.028;2022-09-01T04:34:26;1.90;;;1.40;;
24102;SDS011;12278;53.058;9.028;2022-09-01T04:38:38;4.00;;;1.80;;
24102;SDS011;12278;53.058;9.028;2022-09-01T04:42:40;2.22;;;1.70;;
24102;SDS011;12278;53.058;9.028;2022-09-01T04:46:42;2.60;;;1.55;;
24102;SDS011;12278;53.058;9.028;2022-09-01T04:50:49;2.80;;;1.85;;
24102;SDS011;12278;53.058;9.028;2022-09-01T04:54:51;1.50;;;1.40;;
24102;SDS011;12278;53.058;9.028;2022-09-01T04:58:53;1.80;;;1.70;;
24102;SDS011;12278;53.058;9.028;2022-09-01T05:02:56;2.00;;;1.90;;
24102;SDS011;12278;53.058;9.028;2022-09-01T05:07:03;4.60;;;1.73;;
24102;SDS011;12278;53.058;9.028;2022-09-01T05:11:07;2.13;;;1.90;;
24102;SDS011;12278;53.058;9.028;2022-09-01T05:15:08;2.35;;;1.80;;
24102;SDS011;12278;53.058;9.028;2022-09-01T05:19:09;1.80;;;1.70;;
24102;SDS011;12278;53.058;9.028;2022-09-01T05:23:13;1.75;;;1.48;;
24102;SDS011;12278;53.058;9.028;2022-09-01T05:27:18;2.15;;;1.95;;
24102;SDS011;12278;53.058;9.028;2022-09-01T05:31:20;4.22;;;2.10;;
24102;SDS011;12278;53.058;9.028;2022-09-01T05:35:22;3.90;;;1.98;;
24102;SDS011;12278;53.058;9.028;2022-09-01T05:39:27;2.55;;;2.05;;
24102;SDS011;12278;53.058;9.028;2022-09-01T05:43:29;3.25;;;2.42;;
24102;SDS011;12278;53.058;9.028;2022-09-01T05:47:31;3.35;;;2.65;;
24102;SDS011;12278;53.058;9.028;2022-09-01T05:51:35;2.35;;;2.15;;
24102;SDS011;12278;53.058;9.028;2022-09-01T05:55:36;1.88;;;1.77;;
24102;SDS011;12278;53.058;9.028;2022-09-01T05:59:37;3.55;;;1.70;;
24102;SDS011;12278;53.058;9.028;2022-09-01T06:03:40;2.58;;;1.90;;
24102;SDS011;12278;53.058;9.028;2022-09-01T06:07:43;2.15;;;2.05;;
24102;SDS011;12278;53.058;9.028;2022-09-01T06:11:44;2.00;;;1.80;;
24102;SDS011;12278;53.058;9.028;2022-09-01T06:15:47;2.75;;;1.75;;
24102;SDS011;12278;53.058;9.028;2022-09-01T06:19:52;2.15;;;1.92;;
24102;SDS011;12278;53.058;9.028;2022-09-01T06:23:56;2.50;;;2.30;;
24102;SDS011;12278;53.058;9.028;2022-09-01T06:27:57;2.20;;;1.70;;
24102;SDS011;12278;53.058;9.028;2022-09-01T06:31:58;3.15;;;1.98;;
24102;SDS011;12278;53.058;9.028;2022-09-01T06:36:01;3.17;;;1.50;;
24102;SDS011;12278;53.058;9.028;2022-09-01T06:40:03;3.17;;;1.88;;
24102;SDS011;12278;53.058;9.028;2022-09-01T06:44:09;2.15;;;1.77;;
24102;SDS011;12278;53.058;9.028;2022-09-01T06:48:10;3.78;;;1.75;;
24102;SDS011;12278;53.058;9.028;2022-09-01T06:52:15;1.52;;;1.42;;
24102;SDS011;12278;53.058;9.028;2022-09-01T06:56:16;1.88;;;1.25;;
24102;SDS011;12278;53.058;9.028;2022-09-01T07:00:18;1.58;;;1.20;;
24102;SDS011;12278;53.058;9.028;2022-09-01T07:04:19;2.72;;;2.13;;
24102;SDS011;12278;53.058;9.028;2022-09-01T07:08:22;2.50;;;1.75;;
24102;SDS011;12278;53.058;9.028;2022-09-01T07:12:23;6.90;;;2.05;;
24102;SDS011;12278;53.058;9.028;2022-09-01T07:16:24;2.03;;;1.38;;
24102;SDS011;12278;53.058;9.028;2022-09-01T07:20:26;1.13;;;0.90;;
24102;SDS011;12278;53.058;9.028;2022-09-01T07:24:38;2.15;;;1.23;;
24102;SDS011;12278;53.058;9.028;2022-09-01T07:28:39;1.20;;;1.20;;
24102;SDS011;12278;53.058;9.028;2022-09-01T07:32:40;0.63;;;0.60;;
24102;SDS011;12278;53.058;9.028;2022-09-01T07:36:45;2.42;;;0.80;;
24102;SDS011;12278;53.058;9.028;2022-09-01T07:40:46;1.25;;;0.80;;
24102;SDS011;12278;53.058;9.028;2022-09-01T07:44:48;3.60;;;1.42;;
24102;SDS011;12278;53.058;9.028;2022-09-01T07:48:50;2.33;;;0.88;;
24102;SDS011;12278;53.058;9.028;2022-09-01T07:52:53;2.53;;;1.05;;
24102;SDS011;12278;53.058;9.028;2022-09-01T07:56:54;2.00;;;0.80;;
24102;SDS011;12278;53.058;9.028;2022-09-01T08:00:55;1.13;;;0.95;;
24102;SDS011;12278;53.058;9.028;2022-09-01T08:04:56;0.80;;;0.80;;
24102;SDS011;12278;53.058;9.028;2022-09-01T08:08:57;1.13;;;0.63;;
24102;SDS011;12278;53.058;9.028;2022-09-01T08:12:59;2.50;;;0.85;;
24102;SDS011;12278;53.058;9.028;2022-09-01T08:17:00;0.63;;;0.63;;
24102;SDS011;12278;53.058;9.028;2022-09-01T08:21:06;3.22;;;0.60;;
24102;SDS011;12278;53.058;9.028;2022-09-01T08:25:10;0.88;;;0.57;;
24102;SDS011;12278;53.058;9.028;2022-09-01T08:29:11;0.63;;;0.60;;
24102;SDS011;12278;53.058;9.028;2022-09-01T08:33:12;6.50;;;1.27;;
24102;SDS011;12278;53.058;9.028;2022-09-01T08:37:14;1.25;;;0.70;;
24102;SDS011;12278;53.058;9.028;2022-09-01T08:41:16;1.58;;;0.50;;
24102;SDS011;12278;53.058;9.028;2022-09-01T08:45:56;3.05;;;0.73;;
24102;SDS011;12278;53.058;9.028;2022-09-01T08:50:11;3.63;;;0.90;;
24102;SDS011;12278;53.058;9.028;2022-09-01T08:58:48;2.05;;;0.60;;
24102;SDS011;12278;53.058;9.028;2022-09-01T09:07:51;0.85;;;0.57;;
24102;SDS011;12278;53.058;9.028;2022-09-01T09:12:18;0.50;;;0.47;;
24102;SDS011;12278;53.058;9.028;2022-09-01T09:16:42;2.10;;;0.88;;
24102;SDS011;12278;53.058;9.028;2022-09-01T09:20:48;0.98;;;0.75;;
24102;SDS011;12278;53.058;9.028;2022-09-01T09:29:15;1.75;;;0.77;;
24102;SDS011;12278;53.058;9.028;2022-09-01T09:33:32;0.77;;;0.45;;
24102;SDS011;12278;53.058;9.028;2022-09-01T09:37:37;1.48;;;0.70;;
24102;SDS011;12278;53.058;9.028;2022-09-01T09:41:38;0.30;;;0.30;;
24102;SDS011;12278;53.058;9.028;2022-09-01T09:45:40;1.08;;;0.60;;
24102;SDS011;12278;53.058;9.028;2022-09-01T09:49:41;0.70;;;0.52;;
24102;SDS011;12278;53.058;9.028;2022-09-01T09:53:41;0.77;;;0.77;;
24102;SDS011;12278;53.058;9.028;2022-09-01T09:57:42;0.50;;;0.50;;
24102;SDS011;12278;53.058;9.028;2022-09-01T10:01:44;1.50;;;0.68;;
24102;SDS011;12278;53.058;9.028;2022-09-01T10:05:50;0.95;;;0.73;;
24102;SDS011;12278;53.058;9.028;2022-09-01T10:09:51;4.00;;;1.35;;
24102;SDS011;12278;53.058;9.028;2022-09-01T10:13:54;0.55;;;0.40;;
24102;SDS011;12278;53.058;9.028;2022-09-01T10:18:14;1.83;;;0.40;;
24102;SDS011;12278;53.058;9.028;2022-09-01T10:22:19;0.52;;;0.47;;
24102;SDS011;12278;53.058;9.028;2022-09-01T10:26:23;0.50;;;0.32;;
24102;SDS011;12278;53.058;9.028;2022-09-01T10:30:34;0.70;;;0.55;;
24102;SDS011;12278;53.058;9.028;2022-09-01T10:34:41;1.45;;;0.40;;
24102;SDS011;12278;53.058;9.028;2022-09-01T10:38:45;1.45;;;0.45;;
24102;SDS011;12278;53.058;9.028;2022-09-01T10:42:48;1.50;;;1.00;;
24102;SDS011;12278;53.058;9.028;2022-09-01T10:46:54;0.93;;;0.70;;
24102;SDS011;12278;53.058;9.028;2022-09-01T10:59:42;1.27;;;0.68;;
24102;SDS011;12278;53.058;9.028;2022-09-01T11:07:55;0.77;;;0.65;;
24102;SDS011;12278;53.058;9.028;2022-09-01T11:21:31;1.45;;;0.43;;
24102;SDS011;12278;53.058;9.028;2022-09-01T11:30:02;0.60;;;0.60;;
24102;SDS011;12278;53.058;9.028;2022-09-01T11:38:18;2.33;;;0.90;;
24102;SDS011;12278;53.058;9.028;2022-09-01T11:42:22;15.65;;;1.30;;
24102;SDS011;12278;53.058;9.028;2022-09-01T11:46:32;0.95;;;0.90;;
24102;SDS011;12278;53.058;9.028;2022-09-01T11:50:36;0.73;;;0.70;;
24102;SDS011;12278;53.058;9.028;2022-09-01T11:54:41;3.50;;;0.80;;
24102;SDS011;12278;53.058;9.028;2022-09-01T11:58:45;2.47;;;0.80;;
24102;SDS011;12278;53.058;9.028;2022-09-01T12:02:47;2.65;;;0.82;;
24102;SDS011;12278;53.058;9.028;2022-09-01T12:06:55;0.55;;;0.55;;
24102;SDS011;12278;53.058;9.028;2022-09-01T12:15:29;1.00;;;0.80;;
24102;SDS011;12278;53.058;9.028;2022-09-01T12:19:32;1.65;;;0.55;;
24102;SDS011;12278;53.058;9.028;2022-09-01T12:23:38;1.20;;;0.70;;
24102;SDS011;12278;53.058;9.028;2022-09-01T12:27:42;1.88;;;0.73;;
24102;SDS011;12278;53.058;9.028;2022-09-01T12:31:44;2.00;;;0.60;;
24102;SDS011;12278;53.058;9.028;2022-09-01T12:35:49;0.90;;;0.55;;
24102;SDS011;12278;53.058;9.028;2022-09-01T12:39:51;1.90;;;0.70;;
24102;SDS011;12278;53.058;9.028;2022-09-01T12:44:24;1.35;;;0.77;;
24102;SDS011;12278;53.058;9.028;2022-09-01T12:48:40;4.18;;;0.95;;
24102;SDS011;12278;53.058;9.028;2022-09-01T12:52:51;2.28;;;0.32;;
24102;SDS011;12278;53.058;9.028;2022-09-01T12:57:01;2.08;;;0.75;;
24102;SDS011;12278;53.058;9.028;2022-09-01T13:01:04;1.58;;;0.55;;
24102;SDS011;12278;53.058;9.028;2022-09-01T13:05:27;0.93;;;0.57;;
24102;SDS011;12278;53.058;9.028;2022-09-01T13:09:40;2.47;;;0.88;;
24102;SDS011;12278;53.058;9.028;2022-09-01T13:13:41;1.92;;;0.95;;
24102;SDS011;12278;53.058;9.028;2022-09-01T13:17:42;1.23;;;0.60;;
24102;SDS011;12278;53.058;9.028;2022-09-01T13:21:43;1.73;;;0.95;;
24102;SDS011;12278;53.058;9.028;2022-09-01T13:25:44;1.23;;;0.70;;
24102;SDS011;12278;53.058;9.028;2022-09-01T13:29:45;4.13;;;0.63;;
24102;SDS011;12278;53.058;9.028;2022-09-01T13:33:47;0.98;;;0.68;;
24102;SDS011;12278;53.058;9.028;2022-09-01T13:37:48;1.15;;;0.57;;
24102;SDS011;12278;53.058;9.028;2022-09-01T13:41:49;1.25;;;0.43;;
24102;SDS011;12278;53.058;9.028;2022-09-01T13:45:50;2.03;;;0.70;;
24102;SDS011;12278;53.058;9.028;2022-09-01T13:49:51;4.43;;;1.00;;
24102;SDS011;12278;53.058;9.028;2022-09-01T13:53:52;4.25;;;1.23;;
24102;SDS011;12278;53.058;9.028;2022-09-01T13:57:53;1.20;;;0.40;;
24102;SDS011;12278;53.058;9.028;2022-09-01T14:01:55;2.28;;;0.77;;
24102;SDS011;12278;53.058;9.028;2022-09-01T14:05:56;1.65;;;0.50;;
24102;SDS011;12278;53.058;9.028;2022-09-01T14:09:57;4.15;;;1.08;;
24102;SDS011;12278;53.058;9.028;2022-09-01T14:13:59;0.60;;;0.60;;
24102;SDS011;12278;53.058;9.028;2022-09-01T14:18:00;7.00;;;1.60;;
24102;SDS011;12278;53.058;9.028;2022-09-01T14:22:02;5.85;;;1.48;;
24102;SDS011;12278;53.058;9.028;2022-09-01T14:26:07;5.47;;;0.82;;
24102;SDS011;12278;53.058;9.028;2022-09-01T14:30:12;1.73;;;0.68;;
24102;SDS011;12278;53.058;9.028;2022-09-01T14:34:19;0.95;;;0.70;;
24102;SDS011;12278;53.058;9.028;2022-09-01T14:38:20;1.80;;;0.80;;
24102;SDS011;12278;53.058;9.028;2022-09-01T14:42:21;1.35;;;0.52;;
24102;SDS011;12278;53.058;9.028;2022-09-01T14:46:25;1.10;;;0.75;;
24102;SDS011;12278;53.058;9.028;2022-09-01T14:50:29;1.85;;;0.80;;
24102;SDS011;12278;53.058;9.028;2022-09-01T14:54:32;1.45;;;0.70;;
24102;SDS011;12278;53.058;9.028;2022-09-01T14:58:34;0.38;;;0.38;;
24102;SDS011;12278;53.058;9.028;2022-09-01T15:02:36;1.70;;;0.55;;
24102;SDS011;12278;53.058;9.028;2022-09-01T15:06:41;2.42;;;0.70;;
24102;SDS011;12278;53.058;9.028;2022-09-01T15:10:42;1.83;;;0.68;;
24102;SDS011;12278;53.058;9.028;2022-09-01T15:14:44;1.38;;;0.68;;
24102;SDS011;12278;53.058;9.028;2022-09-01T15:18:44;2.20;;;0.52;;
24102;SDS011;12278;53.058;9.028;2022-09-01T15:22:46;1.20;;;0.50;;
24102;SDS011;12278;53.058;9.028;2022-09-01T15:26:48;2.55;;;0.77;;
24102;SDS011;12278;53.058;9.028;2022-09-01T15:30:50;2.80;;;0.90;;
24102;SDS011;12278;53.058;9.028;2022-09-01T15:34:52;3.42;;;0.80;;
24102;SDS011;12278;53.058;9.028;2022-09-01T15:38:54;2.30;;;0.65;;
24102;SDS011;12278;53.058;9.028;2022-09-01T15:42:56;1.25;;;0.75;;
24102;SDS011;12278;53.058;9.028;2022-09-01T15:46:58;0.63;;;0.60;;
24102;SDS011;12278;53.058;9.028;2022-09-01T15:55:20;0.65;;;0.60;;
24102;SDS011;12278;53.058;9.028;2022-09-01T15:59:28;1.05;;;0.70;;
24102;SDS011;12278;53.058;9.028;2022-09-01T16:03:29;2.05;;;0.93;;
24102;SDS011;12278;53.058;9.028;2022-09-01T16:07:31;3.40;;;1.17;;
24102;SDS011;12278;53.058;9.028;2022-09-01T16:11:31;2.75;;;0.80;;
24102;SDS011;12278;53.058;9.028;2022-09-01T16:15:36;0.70;;;0.65;;
24102;SDS011;12278;53.058;9.028;2022-09-01T16:19:55;0.60;;;0.45;;
24102;SDS011;12278;53.058;9.028;2022-09-01T16:24:07;0.50;;;0.50;;
24102;SDS011;12278;53.058;9.028;2022-09-01T16:28:30;0.40;;;0.40;;
24102;SDS011;12278;53.058;9.028;2022-09-01T16:32:38;2.50;;;0.88;;
24102;SDS011;12278;53.058;9.028;2022-09-01T16:36:49;0.55;;;0.55;;
24102;SDS011;12278;53.058;9.028;2022-09-01T16:59:20;0.88;;;0.40;;
24102;SDS011;12278;53.058;9.028;2022-09-01T17:03:33;3.13;;;0.60;;
24102;SDS011;12278;53.058;9.028;2022-09-01T17:11:52;1.20;;;0.68;;
24102;SDS011;12278;53.058;9.028;2022-09-01T17:16:40;2.45;;;0.73;;
24102;SDS011;12278;53.058;9.028;2022-09-01T17:20:48;10.77;;;1.67;;
24102;SDS011;12278;53.058;9.028;2022-09-01T17:25:05;1.45;;;0.38;;
24102;SDS011;12278;53.058;9.028;2022-09-01T17:29:19;1.58;;;0.50;;
24102;SDS011;12278;53.058;9.028;2022-09-01T17:47:22;0.90;;;0.70;;
24102;SDS011;12278;53.058;9.028;2022-09-01T18:01:33;1.60;;;0.80;;
24102;SDS011;12278;53.058;9.028;2022-09-01T18:05:47;1.60;;;0.98;;
24102;SDS011;12278;53.058;9.028;2022-09-01T18:10:10;3.13;;;1.30;;
24102;SDS011;12278;53.058;9.028;2022-09-01T18:14:20;1.75;;;1.00;;
24102;SDS011;12278;53.058;9.028;2022-09-01T18:18:36;1.85;;;1.00;;
24102;SDS011;12278;53.058;9.028;2022-09-01T18:22:45;0.80;;;0.73;;
24102;SDS011;12278;53.058;9.028;2022-09-01T18:26:59;0.93;;;0.57;;
24102;SDS011;12278;53.058;9.028;2022-09-01T18:35:35;3.00;;;0.70;;
24102;SDS011;12278;53.058;9.028;2022-09-01T18:58:05;1.75;;;0.63;;
24102;SDS011;12278;53.058;9.028;2022-09-01T19:07:18;1.05;;;1.00;;
24102;SDS011;12278;53.058;9.028;2022-09-01T19:20:49;1.60;;;0.80;;
24102;SDS011;12278;53.058;9.028;2022-09-01T19:25:16;1.23;;;0.80;;
24102;SDS011;12278;53.058;9.028;2022-09-01T19:29:36;2.45;;;0.93;;
24102;SDS011;12278;53.058;9.028;2022-09-01T19:33:56;3.53;;;0.98;;
24102;SDS011;12278;53.058;9.028;2022-09-01T19:38:23;1.42;;;0.60;;
24102;SDS011;12278;53.058;9.028;2022-09-01T19:47:17;3.80;;;0.90;;
24102;SDS011;12278;53.058;9.028;2022-09-01T19:51:58;2.10;;;0.85;;
24102;SDS011;12278;53.058;9.028;2022-09-01T19:56:17;2.42;;;0.77;;
24102;SDS011;12278;53.058;9.028;2022-09-01T20:00:53;0.93;;;0.93;;
24102;SDS011;12278;53.058;9.028;2022-09-01T20:05:06;0.50;;;0.50;;
24102;SDS011;12278;53.058;9.028;2022-09-01T20:09:42;1.02;;;0.82;;
24102;SDS011;12278;53.058;9.028;2022-09-01T20:23:24;2.40;;;1.02;;
24102;SDS011;12278;53.058;9.028;2022-09-01T20:27:49;1.05;;;0.88;;
24102;SDS011;12278;53.058;9.028;2022-09-01T20:32:22;1.10;;;1.00;;
24102;SDS011;12278;53.058;9.028;2022-09-01T20:36:36;0.60;;;0.60;;
24102;SDS011;12278;53.058;9.028;2022-09-01T20:40:52;1.23;;;0.70;;
24102;SDS011;12278;53.058;9.028;2022-09-01T20:45:00;3.42;;;1.20;;
24102;SDS011;12278;53.058;9.028;2022-09-01T20:49:11;0.93;;;0.80;;
24102;SDS011;12278;53.058;9.028;2022-09-01T20:58:05;1.38;;;0.82;;
24102;SDS011;12278;53.058;9.028;2022-09-01T21:02:50;1.52;;;0.88;;
24102;SDS011;12278;53.058;9.028;2022-09-01T21:16:10;0.60;;;0.60;;
24102;SDS011;12278;53.058;9.028;2022-09-01T21:24:32;3.03;;;0.65;;
24102;SDS011;12278;53.058;9.028;2022-09-01T21:28:34;0.70;;;0.70;;
24102;SDS011;12278;53.058;9.028;2022-09-01T21:32:41;3.28;;;1.33;;
24102;SDS011;12278;53.058;9.028;2022-09-01T21:36:42;2.10;;;1.52;;
24102;SDS011;12278;53.058;9.028;2022-09-01T21:40:43;0.70;;;0.63;;
24102;SDS011;12278;53.058;9.028;2022-09-01T21:44:45;0.73;;;0.70;;
24102;SDS011;12278;53.058;9.028;2022-09-01T21:48:47;0.90;;;0.90;;
24102;SDS011;12278;53.058;9.028;2022-09-01T21:52:48;0.70;;;0.68;;
24102;SDS011;12278;53.058;9.028;2022-09-01T21:56:49;0.90;;;0.90;;
24102;SDS011;12278;53.058;9.028;2022-09-01T22:00:52;0.63;;;0.63;;
24102;SDS011;12278;53.058;9.028;2022-09-01T22:04:53;1.20;;;1.02;;
24102;SDS011;12278;53.058;9.028;2022-09-01T22:08:54;1.48;;;0.68;;
24102;SDS011;12278;53.058;9.028;2022-09-01T22:12:55;1.02;;;0.93;;
24102;SDS011;12278;53.058;9.028;2022-09-01T22:16:56;0.70;;;0.70;;
24102;SDS011;12278;53.058;9.028;2022-09-01T22:21:05;1.83;;;0.75;;
24102;SDS011;12278;53.058;9.028;2022-09-01T22:25:10;1.20;;;0.68;;
24102;SDS011;12278;53.058;9.028;2022-09-01T22:29:16;1.05;;;0.80;;
24102;SDS011;12278;53.058;9.028;2022-09-01T22:33:18;1.10;;;0.70;;
24102;SDS011;12278;53.058;9.028;2022-09-01T22:37:21;0.80;;;0.80;;
24102;SDS011;12278;53.058;9.028;2022-09-01T22:41:22;0.65;;;0.65;;
24102;SDS011;12278;53.058;9.028;2022-09-01T22:45:26;0.77;;;0.75;;
24102;SDS011;12278;53.058;9.028;2022-09-01T22:49:26;0.98;;;0.90;;
24102;SDS011;12278;53.058;9.028;2022-09-01T22:53:27;1.92;;;1.00;;
24102;SDS011;12278;53.058;9.028;2022-09-01T22:57:28;0.90;;;0.90;;
24102;SDS011;12278;53.058;9.028;2022-09-01T23:01:31;1.60;;;0.70;;
24102;SDS011;12278;53.058;9.028;2022-09-01T23:05:36;0.77;;;0.77;;
24102;SDS011;12278;53.058;9.028;2022-09-01T23:09:37;1.48;;;0.80;;
24102;SDS011;12278;53.058;9.028;2022-09-01T23:13:39;0.65;;;0.60;;
24102;SDS011;12278;53.058;9.028;2022-09-01T23:17:41;1.40;;;0.88;;
24102;SDS011;12278;53.058;9.028;2022-09-01T23:21:42;2.05;;;0.73;;
24102;SDS011;12278;53.058;9.028;2022-09-01T23:25:43;0.85;;;0.85;;
24102;SDS011;12278;53.058;9.028;2022-09-01T23:29:44;0.93;;;0.93;;
24102;SDS011;12278;53.058;9.028;2022-09-01T23:33:45;1.02;;;0.93;;
24102;SDS011;12278;53.058;9.028;2022-09-01T23:37:47;0.68;;;0.68;;
24102;SDS011;12278;53.058;9.028;2022-09-01T23:41:48;2.47;;;1.10;;
24102;SDS011;12278;53.058;9.028;2022-09-01T23:45:52;1.13;;;1.08;;
24102;SDS011;12278;53.058;9.028;2022-09-01T23:49:55;1.05;;;0.93;;
24102;SDS011;12278;53.058;9.028;2022-09-01T23:53:56;1.25;;;0.93;;
24102;SDS011;12278;53.058;9.028;2022-09-01T23:57:58;0.90;;;0.90;;
